Аэропорт
Кишинев (LUKK)

 LUKK / KIV
vACC Молдова
Кишинев (LUUU)
Кишинев (LUUU)
 46.92770, 28.93100  / 399 ft

 LUKK 161730Z 20006KT CAVOK 18/17 Q1012 R26/290150 TEMPO 5000 SHRA SCT035CB
 TAF LUKK 161120Z 1612/1712 VRB05KT CAVOK TEMPO 1612/1620 5000 TSRA SCT035CB TEMPO 1620/1623 SCT045CB TEMPO 1709/1712 SCT045CB
Название сценария Тип сценария Flight Simulator 9 Flight Simulator X Prepar3D v2 Prepar3D v3 Prepar3D v4 Prepar3D v5 xPlane
LUKK Chisinau X платный(+демо)


2020 © VATRUS division (Privacy Policy)